createdAt,value
2022-09-09T00:00:26.776Z,7.22
2022-09-09T00:02:29.866Z,7.18
2022-09-09T00:04:35.839Z,6.63
2022-09-09T00:06:56.632Z,9.77
2022-09-09T00:09:18.674Z,6.35
2022-09-09T00:11:31.576Z,10.20
2022-09-09T00:13:37.822Z,6.45
2022-09-09T00:15:47.804Z,9.88
2022-09-09T00:18:03.103Z,7.78
2022-09-09T00:20:28.277Z,7.47
2022-09-09T00:22:33.354Z,7.63
2022-09-09T00:24:46.719Z,7.22
2022-09-09T00:26:54.525Z,6.25
2022-09-09T00:29:04.886Z,10.48
2022-09-09T00:31:26.050Z,7.30
2022-09-09T00:33:28.767Z,8.02
2022-09-09T00:35:35.810Z,6.15
2022-09-09T00:37:41.303Z,6.82
2022-09-09T00:39:48.584Z,7.72
2022-09-09T00:42:10.533Z,6.75
2022-09-09T00:44:36.292Z,9.98
2022-09-09T00:47:16.410Z,10.18
2022-09-09T00:49:33.451Z,10.95
2022-09-09T00:52:05.878Z,11.15
2022-09-09T00:54:41.856Z,9.32
2022-09-09T00:57:05.007Z,6.03
2022-09-09T00:59:07.114Z,7.07
2022-09-09T01:01:14.577Z,8.45
2022-09-09T01:03:38.600Z,5.90
2022-09-09T01:06:07.879Z,7.03
2022-09-09T01:08:34.736Z,8.40
2022-09-09T01:10:50.503Z,9.63
2022-09-09T01:12:57.077Z,7.65
2022-09-09T01:15:23.200Z,5.38
2022-09-09T01:17:33.820Z,7.60
2022-09-09T01:19:52.830Z,5.65
2022-09-09T01:22:24.713Z,5.20
2022-09-09T01:24:36.966Z,6.35
2022-09-09T01:27:10.564Z,5.93
2022-09-09T01:29:16.713Z,7.40
2022-09-09T01:31:33.718Z,5.28
2022-09-09T01:33:36.002Z,7.18
2022-09-09T01:35:55.695Z,5.38
2022-09-09T01:38:00.861Z,5.65
2022-09-09T01:40:04.086Z,5.85
2022-09-09T01:42:10.564Z,5.13
2022-09-09T01:44:14.041Z,7.78
2022-09-09T01:46:23.600Z,4.85
2022-09-09T01:48:27.557Z,6.07
2022-09-09T01:50:38.491Z,6.75
2022-09-09T01:52:43.033Z,9.05
2022-09-09T01:54:48.510Z,7.03
2022-09-09T01:57:13.401Z,7.30
2022-09-09T01:59:26.292Z,7.18
2022-09-09T02:01:35.238Z,7.20
2022-09-09T02:03:37.669Z,8.45
2022-09-09T02:06:04.779Z,9.98
2022-09-09T02:08:14.709Z,8.90
2022-09-09T02:10:35.503Z,7.00
2022-09-09T02:12:52.457Z,10.38
2022-09-09T02:15:05.095Z,9.18
2022-09-09T02:17:24.561Z,7.95
2022-09-09T02:19:47.507Z,7.90
2022-09-09T02:22:02.332Z,7.40
2022-09-09T02:24:11.499Z,12.18
2022-09-09T02:26:24.521Z,8.93
2022-09-09T02:28:36.407Z,7.35
2022-09-09T02:30:40.955Z,11.70
2022-09-09T02:32:46.018Z,7.57
2022-09-09T02:34:55.281Z,7.45
2022-09-09T02:37:00.995Z,9.10
2022-09-09T02:39:05.801Z,8.70
2022-09-09T02:41:10.410Z,7.85
2022-09-09T02:43:17.548Z,7.28
2022-09-09T02:45:26.194Z,8.10
2022-09-09T02:47:40.069Z,6.70
2022-09-09T02:50:14.245Z,10.35
2022-09-09T02:52:25.096Z,8.27
2022-09-09T02:54:33.098Z,7.78
2022-09-09T02:56:45.229Z,7.35
2022-09-09T02:58:48.589Z,6.85
2022-09-09T03:00:52.461Z,6.80
2022-09-09T03:02:55.739Z,6.60
2022-09-09T03:04:58.050Z,7.05
2022-09-09T03:07:00.757Z,7.07
2022-09-09T03:09:03.953Z,9.45
2022-09-09T03:11:06.035Z,8.20
2022-09-09T03:13:12.402Z,8.23
2022-09-09T03:15:16.602Z,7.35
2022-09-09T03:17:19.243Z,7.22
2022-09-09T03:19:26.777Z,8.02
2022-09-09T03:21:28.872Z,7.63
2022-09-09T03:23:31.029Z,6.35
2022-09-09T03:25:36.845Z,7.55
2022-09-09T03:27:38.755Z,8.50
2022-09-09T03:29:40.631Z,5.78
2022-09-09T03:31:47.452Z,6.03
2022-09-09T03:33:54.871Z,6.20
2022-09-09T03:35:58.616Z,6.28
2022-09-09T03:38:01.837Z,6.97
2022-09-09T03:40:12.977Z,7.32
2022-09-09T03:42:19.899Z,6.60
2022-09-09T03:44:25.396Z,5.57
2022-09-09T03:46:27.940Z,5.53
2022-09-09T03:48:30.852Z,6.20
2022-09-09T03:50:34.408Z,5.68
2022-09-09T03:52:41.892Z,5.38
2022-09-09T03:54:49.581Z,5.20
2022-09-09T03:56:51.820Z,6.40
2022-09-09T03:58:54.581Z,5.35
2022-09-09T04:01:03.620Z,5.80
2022-09-09T04:03:06.879Z,8.43
2022-09-09T04:05:09.376Z,7.05
2022-09-09T04:07:13.067Z,5.82
2022-09-09T04:09:16.506Z,5.20
2022-09-09T04:11:19.174Z,7.80
2022-09-09T04:13:23.905Z,6.93
2022-09-09T04:15:26.013Z,9.48
2022-09-09T04:17:28.005Z,5.95
2022-09-09T04:19:30.042Z,9.95
2022-09-09T04:21:32.689Z,5.68
2022-09-09T04:23:38.119Z,5.88
2022-09-09T04:25:48.963Z,7.22
2022-09-09T04:27:58.379Z,7.90
2022-09-09T04:30:03.483Z,4.78
2022-09-09T04:32:07.855Z,8.05
2022-09-09T04:34:14.874Z,5.63
2022-09-09T04:36:17.402Z,5.90
2022-09-09T04:38:20.432Z,4.63
2022-09-09T04:40:23.510Z,5.70
2022-09-09T04:42:29.462Z,6.38
2022-09-09T04:44:31.786Z,6.90
2022-09-09T04:46:35.583Z,6.18
2022-09-09T04:48:38.257Z,5.65
2022-09-09T04:50:42.310Z,5.43
2022-09-09T04:52:47.294Z,4.15
2022-09-09T04:54:49.561Z,4.68
2022-09-09T04:56:52.168Z,6.13
2022-09-09T04:58:55.532Z,4.70
2022-09-09T05:01:05.809Z,5.38
2022-09-09T05:03:09.459Z,4.95
2022-09-09T05:05:12.419Z,5.70
2022-09-09T05:07:15.864Z,8.32
2022-09-09T05:09:18.335Z,5.75
2022-09-09T05:11:29.890Z,4.97
2022-09-09T05:13:52.828Z,4.80
2022-09-09T05:15:56.393Z,3.90
2022-09-09T05:18:00.877Z,3.83
2022-09-09T05:20:09.535Z,4.30
2022-09-09T05:22:13.184Z,4.22
2022-09-09T05:24:24.411Z,3.92
2022-09-09T05:26:30.587Z,4.32
2022-09-09T05:28:36.534Z,4.60
2022-09-09T05:30:39.402Z,3.33
2022-09-09T05:32:44.719Z,5.13
2022-09-09T05:34:48.398Z,4.88
2022-09-09T05:36:51.254Z,6.47
2022-09-09T05:38:56.233Z,3.85
2022-09-09T05:41:01.257Z,3.22
2022-09-09T05:43:04.124Z,3.67
2022-09-09T05:45:08.967Z,4.05
2022-09-09T05:47:11.373Z,3.60
2022-09-09T05:49:13.821Z,2.72
2022-09-09T05:51:25.755Z,3.08
2022-09-09T05:53:33.374Z,3.33
2022-09-09T05:55:35.998Z,5.53
2022-09-09T05:57:40.503Z,2.80
2022-09-09T05:59:43.673Z,2.97
2022-09-09T06:01:49.485Z,2.90
2022-09-09T06:04:06.664Z,6.65
2022-09-09T06:06:15.043Z,4.90
2022-09-09T06:08:17.724Z,3.60
2022-09-09T06:10:20.426Z,4.32
2022-09-09T06:12:22.657Z,3.85
2022-09-09T06:14:25.370Z,4.50
2022-09-09T06:16:31.052Z,3.78
2022-09-09T06:18:33.674Z,3.15
2022-09-09T06:20:39.271Z,3.38
2022-09-09T06:22:42.355Z,4.65
2022-09-09T06:24:46.127Z,4.75
2022-09-09T06:26:48.232Z,9.05
2022-09-09T06:28:59.148Z,6.88
2022-09-09T06:31:06.905Z,5.50
2022-09-09T06:33:10.423Z,4.30
2022-09-09T06:35:12.893Z,5.75
2022-09-09T06:37:15.374Z,3.40
2022-09-09T06:39:22.729Z,3.38
2022-09-09T06:41:28.132Z,3.95
2022-09-09T06:43:31.288Z,6.10
2022-09-09T06:45:37.810Z,3.55
2022-09-09T06:47:40.185Z,3.30
2022-09-09T06:49:45.490Z,3.58
2022-09-09T06:51:50.653Z,6.80
2022-09-09T06:53:55.664Z,3.92
2022-09-09T06:55:59.709Z,3.95
2022-09-09T06:58:02.948Z,4.72
2022-09-09T07:00:06.035Z,3.63
2022-09-09T07:02:09.626Z,3.10
2022-09-09T07:04:12.332Z,3.30
2022-09-09T07:06:18.714Z,3.55
2022-09-09T07:08:21.764Z,3.92
2022-09-09T07:10:26.965Z,3.40
2022-09-09T07:12:29.700Z,2.97
2022-09-09T07:14:37.313Z,3.30
2022-09-09T07:16:46.801Z,3.75
2022-09-09T07:18:51.727Z,3.53
2022-09-09T07:20:56.470Z,4.00
2022-09-09T07:23:00.357Z,4.03
2022-09-09T07:25:03.391Z,3.65
2022-09-09T07:27:08.201Z,3.85
2022-09-09T07:29:18.511Z,3.92
2022-09-09T07:31:31.777Z,3.28
2022-09-09T07:33:36.482Z,3.85
2022-09-09T07:35:39.255Z,6.45
2022-09-09T07:37:42.411Z,4.43
2022-09-09T07:39:45.217Z,7.40
2022-09-09T07:41:50.281Z,4.50
2022-09-09T07:43:55.675Z,3.17
2022-09-09T07:46:01.767Z,3.90
2022-09-09T07:48:05.061Z,3.60
2022-09-09T07:50:07.827Z,4.95
2022-09-09T07:52:10.165Z,4.55
2022-09-09T07:54:17.337Z,3.88
2022-09-09T07:56:23.686Z,4.32
2022-09-09T07:58:26.801Z,4.07
2022-09-09T08:00:29.757Z,3.33
2022-09-09T08:02:33.679Z,5.35
2022-09-09T08:04:36.758Z,7.18
2022-09-09T08:06:41.603Z,7.57
2022-09-09T08:08:46.352Z,3.63
2022-09-09T08:10:48.558Z,3.92
2022-09-09T08:13:07.959Z,6.72
2022-09-09T08:15:13.888Z,3.95
2022-09-09T08:17:16.253Z,4.10
2022-09-09T08:19:19.145Z,3.75
2022-09-09T08:21:25.134Z,5.75
2022-09-09T08:23:27.879Z,7.80
2022-09-09T08:25:30.181Z,5.15
2022-09-09T08:27:33.409Z,4.38
2022-09-09T08:29:35.790Z,6.88
2022-09-09T08:31:41.319Z,6.97
2022-09-09T08:33:46.645Z,6.97
2022-09-09T08:35:52.265Z,5.90
2022-09-09T08:37:56.638Z,5.13
2022-09-09T08:40:00.368Z,7.47
2022-09-09T08:42:06.124Z,9.60
2022-09-09T08:44:32.533Z,5.93
2022-09-09T08:46:49.681Z,11.50
2022-09-09T08:48:57.890Z,7.47
2022-09-09T08:51:03.246Z,8.10
2022-09-09T08:53:09.275Z,7.40
2022-09-09T08:55:37.915Z,8.07
2022-09-09T08:57:40.451Z,8.75
2022-09-09T08:59:42.745Z,6.97
2022-09-09T09:01:57.362Z,8.80
2022-09-09T09:04:24.176Z,8.27
2022-09-09T09:06:37.477Z,8.25
2022-09-09T09:09:05.918Z,7.90
2022-09-09T09:11:08.611Z,6.55
2022-09-09T09:13:23.636Z,6.80
2022-09-09T09:15:32.826Z,7.45
2022-09-09T09:17:38.698Z,9.35
2022-09-09T09:19:44.409Z,7.93
2022-09-09T09:22:11.464Z,6.82
2022-09-09T09:24:21.500Z,6.30
2022-09-09T09:26:31.856Z,6.32
2022-09-09T09:28:35.485Z,6.40
2022-09-09T09:31:02.686Z,8.18
2022-09-09T09:33:16.258Z,6.75
2022-09-09T09:35:18.782Z,6.55
2022-09-09T09:37:30.565Z,7.47
2022-09-09T09:42:21.606Z,7.55
2022-09-09T09:44:33.789Z,7.70
2022-09-09T09:46:42.236Z,8.20
2022-09-09T09:48:59.093Z,7.63
2022-09-09T09:51:16.723Z,6.97
2022-09-09T09:53:32.649Z,9.02
2022-09-09T09:55:36.705Z,7.15
2022-09-09T09:57:39.595Z,8.45
2022-09-09T09:59:46.883Z,7.05
2022-09-09T10:02:22.197Z,7.28
2022-09-09T10:04:30.685Z,9.57
2022-09-09T10:06:38.658Z,6.40
2022-09-09T10:08:48.320Z,7.25
2022-09-09T10:11:05.597Z,8.00
2022-09-09T10:13:20.286Z,8.55
2022-09-09T10:15:41.711Z,6.85
2022-09-09T10:18:17.462Z,6.72
2022-09-09T10:20:35.977Z,7.25
2022-09-09T10:22:45.166Z,8.38
2022-09-09T10:25:04.090Z,8.10
2022-09-09T10:27:31.413Z,6.97
2022-09-09T10:30:13.458Z,8.45
2022-09-09T10:32:57.229Z,7.07
2022-09-09T10:35:04.143Z,6.93
2022-09-09T10:37:24.678Z,7.35
2022-09-09T10:39:42.188Z,6.85
2022-09-09T10:41:45.060Z,7.00
2022-09-09T10:44:02.242Z,7.53
2022-09-09T10:46:16.465Z,6.97
2022-09-09T10:48:44.516Z,7.15
2022-09-09T10:51:18.962Z,8.10
2022-09-09T10:53:37.898Z,7.90
2022-09-09T10:55:46.422Z,8.15
2022-09-09T10:57:51.251Z,8.55
2022-09-09T11:00:01.079Z,8.48
2022-09-09T11:02:20.480Z,10.50
2022-09-09T11:04:26.980Z,7.65
2022-09-09T11:06:40.088Z,8.50
2022-09-09T11:08:43.380Z,8.00
2022-09-09T11:10:56.587Z,9.15
2022-09-09T11:13:07.121Z,10.60
2022-09-09T11:15:27.300Z,9.45
2022-09-09T11:17:45.635Z,8.23
2022-09-09T11:19:48.274Z,11.93
2022-09-09T11:21:52.380Z,10.77
2022-09-09T11:24:00.552Z,9.00
2022-09-09T11:26:06.081Z,9.32
2022-09-09T11:28:33.621Z,9.95
2022-09-09T11:31:12.695Z,11.63
2022-09-09T11:33:33.904Z,8.77
2022-09-09T11:36:07.422Z,9.57
2022-09-09T11:38:19.527Z,9.80
2022-09-09T11:40:31.967Z,9.57
2022-09-09T11:42:34.162Z,11.18
2022-09-09T11:46:43.704Z,10.23
2022-09-09T11:48:47.447Z,10.18
2022-09-09T11:51:02.030Z,13.30
2022-09-09T11:53:22.239Z,15.00
2022-09-09T11:55:35.922Z,9.77
2022-09-09T11:57:38.752Z,8.95
2022-09-09T11:59:53.491Z,14.10
2022-09-09T12:02:33.779Z,9.75
2022-09-09T12:04:45.805Z,11.50
2022-09-09T12:06:53.623Z,12.05
2022-09-09T12:09:16.935Z,10.02
2022-09-09T12:11:30.286Z,12.27
2022-09-09T12:13:35.425Z,11.27
2022-09-09T12:15:50.630Z,9.20
2022-09-09T12:17:57.175Z,8.95
2022-09-09T12:20:08.438Z,12.02
2022-09-09T12:22:18.629Z,11.93
2022-09-09T12:24:32.323Z,10.57
2022-09-09T12:26:45.845Z,10.52
2022-09-09T12:28:57.275Z,10.77
2022-09-09T12:31:19.250Z,10.70
2022-09-09T12:33:23.069Z,15.57
2022-09-09T12:35:30.170Z,11.25
2022-09-09T12:37:58.370Z,10.15
2022-09-09T12:40:04.412Z,10.55
2022-09-09T12:42:06.897Z,11.77
2022-09-09T12:44:12.070Z,11.70
2022-09-09T12:46:33.016Z,13.07
2022-09-09T12:48:40.082Z,13.20
2022-09-09T12:50:49.641Z,17.35
2022-09-09T12:52:54.916Z,13.35
2022-09-09T12:55:02.571Z,11.65
2022-09-09T12:57:13.460Z,12.10
2022-09-09T12:59:37.179Z,14.23
2022-09-09T13:01:39.358Z,14.05
2022-09-09T13:03:48.390Z,16.98
2022-09-09T13:05:51.061Z,13.90
2022-09-09T13:07:53.373Z,12.90
2022-09-09T13:09:55.169Z,11.88
2022-09-09T13:11:59.242Z,14.10
2022-09-09T13:14:01.600Z,13.20
2022-09-09T13:16:05.751Z,11.93
2022-09-09T13:18:14.176Z,12.10
2022-09-09T13:20:20.953Z,11.82
2022-09-09T13:22:41.701Z,12.27
2022-09-09T13:24:44.123Z,12.85
2022-09-09T13:26:57.477Z,11.82
2022-09-09T13:29:19.017Z,12.18
2022-09-09T13:31:37.595Z,13.50
2022-09-09T13:33:41.048Z,12.07
2022-09-09T13:35:54.144Z,13.10
2022-09-09T13:37:56.326Z,13.35
2022-09-09T13:39:58.982Z,12.15
2022-09-09T13:42:02.194Z,12.65
2022-09-09T13:44:05.570Z,13.35
2022-09-09T13:46:25.373Z,13.10
2022-09-09T13:48:27.375Z,14.52
2022-09-09T13:50:30.740Z,13.40
2022-09-09T13:52:33.056Z,14.23
2022-09-09T13:54:34.838Z,25.58
2022-09-09T13:56:38.202Z,20.20
2022-09-09T13:58:40.049Z,16.65
2022-09-09T14:00:41.840Z,12.88
2022-09-09T14:02:45.173Z,14.57
2022-09-09T14:04:46.913Z,12.40
2022-09-09T14:06:50.426Z,16.70
2022-09-09T14:08:53.111Z,16.50
2022-09-09T14:10:56.961Z,17.15
2022-09-09T14:12:58.772Z,14.73
2022-09-09T14:15:03.869Z,13.95
2022-09-09T14:17:08.006Z,17.30
2022-09-09T14:19:10.938Z,15.45
2022-09-09T14:21:13.348Z,15.02
2022-09-09T14:23:16.672Z,15.80
2022-09-09T14:25:18.428Z,14.95
2022-09-09T14:27:21.060Z,14.90
2022-09-09T14:29:22.976Z,16.30
2022-09-09T14:31:25.459Z,16.70
2022-09-09T14:33:27.657Z,14.13
2022-09-09T14:35:29.371Z,16.30
2022-09-09T14:37:32.244Z,15.50
2022-09-09T14:39:34.190Z,14.55
2022-09-09T14:41:35.991Z,13.85
2022-09-09T14:43:41.351Z,14.13
2022-09-09T14:45:44.460Z,14.40
2022-09-09T14:47:46.289Z,13.95
2022-09-09T14:49:51.017Z,13.30
2022-09-09T14:51:52.822Z,18.27
2022-09-09T14:54:00.338Z,14.13
2022-09-09T14:56:09.497Z,13.90
2022-09-09T14:58:11.658Z,13.73
2022-09-09T15:00:14.339Z,15.95
2022-09-09T15:02:16.099Z,13.85
2022-09-09T15:04:18.342Z,14.25
2022-09-09T15:06:21.491Z,14.88
2022-09-09T15:08:23.196Z,14.07
2022-09-09T15:10:25.487Z,14.77
2022-09-09T15:12:28.014Z,14.57
2022-09-09T15:14:29.691Z,14.25
2022-09-09T15:16:33.256Z,13.25
2022-09-09T15:18:37.332Z,15.57
2022-09-09T15:20:40.353Z,16.38
2022-09-09T15:22:42.537Z,16.98
2022-09-09T15:24:44.669Z,13.35
2022-09-09T15:26:46.774Z,14.52
2022-09-09T15:28:50.754Z,15.13
2022-09-09T15:30:54.137Z,15.38
2022-09-09T15:32:55.973Z,14.57
2022-09-09T15:34:57.850Z,14.45
2022-09-09T15:37:02.379Z,13.02
2022-09-09T15:39:07.259Z,14.20
2022-09-09T15:41:09.074Z,17.17
2022-09-09T15:43:11.858Z,14.98
2022-09-09T15:45:13.753Z,13.88
2022-09-09T15:47:16.204Z,12.88
2022-09-09T15:49:26.399Z,13.55
2022-09-09T15:51:42.370Z,13.23
2022-09-09T15:53:45.995Z,14.25
2022-09-09T15:55:47.748Z,14.13
2022-09-09T15:57:49.621Z,14.65
2022-09-09T15:59:51.747Z,22.30
2022-09-09T16:01:53.671Z,19.80
2022-09-09T16:03:55.545Z,21.50
2022-09-09T16:05:57.258Z,19.65
2022-09-09T16:07:59.372Z,17.77
2022-09-09T16:10:01.033Z,17.90
2022-09-09T16:12:07.456Z,15.15
2022-09-09T16:14:09.204Z,16.67
2022-09-09T16:16:13.405Z,15.88
2022-09-09T16:18:16.505Z,15.35
2022-09-09T16:20:19.971Z,14.45
2022-09-09T16:22:22.887Z,15.63
2022-09-09T16:24:25.036Z,19.40
2022-09-09T16:26:30.311Z,22.65
2022-09-09T16:28:34.790Z,21.55
2022-09-09T16:30:40.390Z,20.65
2022-09-09T16:32:42.483Z,18.63
2022-09-09T16:34:44.251Z,25.05
2022-09-09T16:36:47.423Z,21.20
2022-09-09T16:38:52.840Z,21.23
2022-09-09T16:41:01.227Z,22.05
2022-09-09T16:43:03.739Z,18.80
2022-09-09T16:45:06.548Z,18.00
2022-09-09T16:47:10.545Z,17.45
2022-09-09T16:49:15.734Z,21.35
2022-09-09T16:51:25.539Z,21.55
2022-09-09T16:53:27.997Z,29.58
2022-09-09T16:55:30.986Z,33.08
2022-09-09T16:57:32.872Z,34.28
2022-09-09T16:59:34.697Z,29.02
2022-09-09T17:01:39.096Z,34.67
2022-09-09T17:03:42.086Z,32.15
2022-09-09T17:05:45.704Z,33.97
2022-09-09T17:07:47.512Z,32.90
2022-09-09T17:09:49.963Z,26.25
2022-09-09T17:11:53.328Z,25.42
2022-09-09T17:13:55.927Z,19.40
2022-09-09T17:16:02.270Z,20.90
2022-09-09T17:18:04.698Z,23.20
2022-09-09T17:20:08.163Z,20.73
2022-09-09T17:22:17.879Z,17.45
2022-09-09T17:24:19.911Z,18.10
2022-09-09T17:26:23.682Z,16.60
2022-09-09T17:28:28.397Z,17.92
2022-09-09T17:30:31.473Z,17.52
2022-09-09T17:32:33.424Z,16.95
2022-09-09T17:34:35.784Z,15.70
2022-09-09T17:36:40.671Z,16.75
2022-09-09T17:38:45.870Z,16.88
2022-09-09T17:40:48.603Z,16.42
2022-09-09T17:42:50.381Z,15.48
2022-09-09T17:44:52.364Z,17.15
2022-09-09T17:46:55.578Z,16.20
2022-09-09T17:49:00.070Z,15.13
2022-09-09T17:51:01.824Z,16.77
2022-09-09T17:53:03.665Z,15.77
2022-09-09T17:55:06.287Z,17.67
2022-09-09T17:57:08.265Z,15.02
2022-09-09T17:59:12.132Z,15.18
2022-09-09T18:01:23.349Z,19.75
2022-09-09T18:03:25.798Z,16.58
2022-09-09T18:05:27.635Z,15.40
2022-09-09T18:07:31.424Z,17.33
2022-09-09T18:09:33.757Z,17.55
2022-09-09T18:11:42.808Z,20.33
2022-09-09T18:13:49.398Z,19.75
2022-09-09T18:15:51.230Z,18.40
2022-09-09T18:17:53.512Z,19.60
2022-09-09T18:19:55.241Z,17.50
2022-09-09T18:22:00.229Z,18.02
2022-09-09T18:24:06.908Z,16.42
2022-09-09T18:26:11.100Z,17.27
2022-09-09T18:28:13.671Z,16.88
2022-09-09T18:30:15.507Z,18.00
2022-09-09T18:32:20.030Z,17.98
2022-09-09T18:34:23.292Z,19.40
2022-09-09T18:36:37.376Z,19.63
2022-09-09T18:38:39.196Z,18.15
2022-09-09T18:40:41.102Z,18.35
2022-09-09T18:42:43.367Z,17.98
2022-09-09T18:44:45.086Z,17.90
2022-09-09T18:46:48.493Z,17.35
2022-09-09T18:48:50.949Z,16.30
2022-09-09T18:50:53.383Z,17.20
2022-09-09T18:52:55.085Z,16.08
2022-09-09T18:54:56.858Z,15.77
2022-09-09T18:57:02.824Z,17.10
2022-09-09T18:59:06.746Z,16.70
2022-09-09T19:01:12.608Z,17.10
2022-09-09T19:03:14.905Z,18.70
2022-09-09T19:05:16.674Z,18.25
2022-09-09T19:07:19.087Z,15.10
2022-09-09T19:09:20.849Z,17.25
2022-09-09T19:11:24.351Z,15.48
2022-09-09T19:13:27.212Z,16.30
2022-09-09T19:15:29.800Z,16.17
2022-09-09T19:17:32.463Z,16.50
2022-09-09T19:19:35.201Z,16.75
2022-09-09T19:21:38.796Z,16.58
2022-09-09T19:23:41.549Z,18.05
2022-09-09T19:25:43.920Z,17.02
2022-09-09T19:27:45.933Z,17.88
2022-09-09T19:29:48.340Z,18.15
2022-09-09T19:32:29.230Z,17.60
2022-09-09T19:34:14.488Z,17.10
2022-09-09T19:36:18.308Z,16.67
2022-09-09T19:38:20.072Z,16.40
2022-09-09T19:40:23.069Z,18.55
2022-09-09T19:42:25.618Z,17.20
2022-09-09T19:44:27.326Z,19.35
2022-09-09T19:46:31.046Z,17.83
2022-09-09T19:48:34.664Z,16.38
2022-09-09T19:50:37.074Z,16.75
2022-09-09T19:52:38.909Z,17.20
2022-09-09T19:54:40.752Z,20.70
2022-09-09T19:56:44.265Z,19.77
2022-09-09T19:58:47.688Z,17.58
2022-09-09T20:00:49.385Z,17.88
2022-09-09T20:03:15.346Z,20.02
2022-09-09T20:05:14.088Z,20.27
2022-09-09T20:07:16.016Z,19.30
2022-09-09T20:09:18.535Z,17.27
2022-09-09T20:11:20.597Z,18.00
2022-09-09T20:13:22.288Z,21.55
2022-09-09T20:15:24.518Z,19.42
2022-09-09T20:17:26.226Z,18.98
2022-09-09T20:19:28.134Z,17.65
2022-09-09T20:21:33.088Z,17.48
2022-09-09T20:23:35.256Z,19.30
2022-09-09T20:25:38.078Z,17.15
2022-09-09T20:27:39.815Z,16.88
2022-09-09T20:29:41.562Z,18.77
2022-09-09T20:31:44.851Z,17.45
2022-09-09T20:33:47.741Z,16.55
2022-09-09T20:35:49.692Z,16.85
2022-09-09T20:37:51.413Z,18.92
2022-09-09T20:39:53.733Z,15.23
2022-09-09T20:41:55.587Z,15.80
2022-09-09T20:43:59.603Z,15.52
2022-09-09T20:46:04.986Z,16.13
2022-09-09T20:48:07.349Z,20.08
2022-09-09T20:50:09.735Z,19.38
2022-09-09T20:52:12.351Z,18.80
2022-09-09T20:54:17.287Z,19.25
2022-09-09T20:56:20.303Z,19.67
2022-09-09T20:58:21.994Z,18.70
2022-09-09T21:00:24.088Z,16.65
2022-09-09T21:02:26.411Z,15.15
2022-09-09T21:04:29.269Z,17.05
2022-09-09T21:06:31.193Z,19.13
2022-09-09T21:08:34.303Z,17.10
2022-09-09T21:10:36.425Z,16.95
2022-09-09T21:12:39.771Z,19.73
2022-09-09T21:14:41.773Z,15.73
2022-09-09T21:16:43.857Z,13.80
2022-09-09T21:18:46.128Z,16.10
2022-09-09T21:20:48.932Z,18.17
2022-09-09T21:22:51.068Z,15.90
2022-09-09T21:24:53.585Z,15.30
2022-09-09T21:26:56.730Z,15.05
2022-09-09T21:28:58.798Z,16.48
2022-09-09T21:31:00.877Z,24.50
2022-09-09T21:33:04.277Z,15.70
2022-09-09T21:35:07.470Z,17.55
2022-09-09T21:37:09.741Z,16.58
2022-09-09T21:39:11.755Z,22.33
2022-09-09T21:41:15.592Z,21.73
2022-09-09T21:43:19.442Z,19.10
2022-09-09T21:45:21.465Z,18.42
2022-09-09T21:47:23.546Z,23.50
2022-09-09T21:49:27.711Z,21.60
2022-09-09T21:51:30.412Z,21.25
2022-09-09T21:53:33.514Z,25.50
2022-09-09T21:55:41.849Z,20.85
2022-09-09T21:57:43.992Z,24.05
2022-09-09T21:59:46.301Z,17.73
2022-09-09T22:01:50.372Z,17.52
2022-09-09T22:03:52.511Z,18.85
2022-09-09T22:05:54.712Z,16.80
2022-09-09T22:07:56.877Z,17.88
2022-09-09T22:09:59.364Z,18.48
2022-09-09T22:12:01.630Z,16.88
2022-09-09T22:14:03.672Z,17.75
2022-09-09T22:16:08.939Z,16.95
2022-09-09T22:18:11.791Z,16.90
2022-09-09T22:20:13.901Z,17.10
2022-09-09T22:22:16.442Z,16.25
2022-09-09T22:24:18.414Z,15.48
2022-09-09T22:26:20.696Z,15.93
2022-09-09T22:28:23.539Z,16.88
2022-09-09T22:30:25.925Z,14.65
2022-09-09T22:32:31.778Z,15.60
2022-09-09T22:34:39.980Z,18.50
2022-09-09T22:36:42.288Z,15.35
2022-09-09T22:38:44.443Z,15.35
2022-09-09T22:40:48.057Z,17.33
2022-09-09T22:42:53.344Z,15.00
2022-09-09T22:44:56.036Z,14.85
2022-09-09T22:46:58.113Z,14.98
2022-09-09T22:49:02.322Z,15.27
2022-09-09T22:51:13.408Z,15.43
2022-09-09T22:53:17.783Z,16.13
2022-09-09T22:55:20.122Z,17.92
2022-09-09T22:57:22.326Z,22.40
2022-09-09T22:59:24.286Z,13.65
2022-09-09T23:01:28.119Z,16.15
2022-09-09T23:03:33.273Z,14.60
2022-09-09T23:05:38.685Z,16.77
2022-09-09T23:07:40.821Z,15.23
2022-09-09T23:09:42.952Z,15.68
2022-09-09T23:11:46.995Z,17.05
2022-09-09T23:13:57.600Z,15.05
2022-09-09T23:16:04.156Z,15.45
2022-09-09T23:18:07.171Z,18.30
2022-09-09T23:20:10.618Z,15.00
2022-09-09T23:22:15.323Z,17.35
2022-09-09T23:24:18.171Z,16.63
2022-09-09T23:26:21.101Z,19.02
2022-09-09T23:28:23.181Z,16.17
2022-09-09T23:30:31.757Z,20.27
2022-09-09T23:32:34.336Z,16.10
2022-09-09T23:34:40.202Z,20.20
2022-09-09T23:36:42.441Z,19.25
2022-09-09T23:38:44.545Z,19.95
2022-09-09T23:40:47.270Z,15.98
2022-09-09T23:42:49.265Z,21.33
2022-09-09T23:44:52.339Z,18.15
2022-09-09T23:46:54.659Z,16.55
2022-09-09T23:48:58.217Z,15.70
2022-09-09T23:51:00.588Z,17.60
2022-09-09T23:53:03.402Z,17.63
2022-09-09T23:55:08.924Z,15.27
2022-09-09T23:57:13.778Z,19.38
2022-09-09T23:59:16.075Z,18.77
